Time;durP1;ratioP1;P1;durP2;ratioP2;P2;SDS_P1;SDS_P2;PMS_P1;PMS_P2;Temp;Humidity;BMP_temperature;BMP_pressure;BME280_temperature;BME280_humidity;BME280_pressure;Samples;Min_cycle;Max_cycle;Signal;HPM_P1;HPM_P2
2021/06/24 00:00:46;;;;;;;4.45;2.53;;;;;;;24.92;40.30;101400.28;4407675;32;20038;-75
2021/06/24 00:03:12;;;;;;;3.75;2.30;;;;;;;25.18;39.80;101400.00;4404050;32;20121;-75
2021/06/24 00:05:39;;;;;;;3.50;2.40;;;;;;;24.83;40.33;101388.22;4405420;32;20082;-75
2021/06/24 00:08:06;;;;;;;3.70;2.08;;;;;;;24.92;40.21;101400.28;4407842;32;20147;-76
2021/06/24 00:10:33;;;;;;;4.15;2.33;;;;;;;24.98;40.03;101383.78;4400731;32;20539;-77
2021/06/24 00:12:58;;;;;;;3.72;2.20;;;;;;;24.76;40.39;101391.62;4407335;32;20133;-76
2021/06/24 00:15:24;;;;;;;4.47;2.05;;;;;;;24.50;40.90;101385.25;4404911;32;20116;-76
2021/06/24 00:17:50;;;;;;;4.80;2.40;;;;;;;24.56;40.90;101392.63;4401767;32;20066;-77
2021/06/24 00:20:16;;;;;;;2.97;2.05;;;;;;;24.39;41.17;101386.03;4404478;32;20077;-76
2021/06/24 00:22:41;;;;;;;5.62;2.40;;;;;;;24.54;40.96;101385.81;4405673;32;20137;-74
2021/06/24 00:25:07;;;;;;;3.65;2.10;;;;;;;24.60;40.81;101381.63;4403483;32;20038;-76
2021/06/24 00:27:34;;;;;;;3.15;2.03;;;;;;;24.55;40.92;101381.63;4405178;32;20086;-78
2021/06/24 00:29:59;;;;;;;3.97;2.10;;;;;;;24.55;40.79;101373.00;4403072;32;20465;-76
2021/06/24 00:32:28;;;;;;;3.40;2.03;;;;;;;24.53;40.69;101382.16;4402915;32;20474;-75
2021/06/24 00:34:59;;;;;;;3.22;2.10;;;;;;;24.60;40.70;101375.06;4404511;32;20768;-75
2021/06/24 00:37:25;;;;;;;3.00;2.25;;;;;;;24.67;40.59;101375.38;4393438;32;20465;-77
2021/06/24 00:39:51;;;;;;;3.47;2.50;;;;;;;24.56;40.80;101375.34;4405841;32;20129;-78
2021/06/24 00:42:18;;;;;;;3.33;2.30;;;;;;;24.56;40.79;101366.72;4407133;32;20091;-78
2021/06/24 00:44:43;;;;;;;4.75;2.58;;;;;;;24.67;40.63;101372.50;4405666;32;20072;-77
2021/06/24 00:47:09;;;;;;;3.50;2.55;;;;;;;24.56;40.86;101372.47;4403613;32;20046;-75
2021/06/24 00:49:35;;;;;;;2.67;1.90;;;;;;;24.48;40.84;101367.75;4404882;32;20089;-74
2021/06/24 00:52:00;;;;;;;3.17;2.10;;;;;;;24.56;40.84;101369.59;4402187;32;20080;-75
2021/06/24 00:54:26;;;;;;;3.33;2.10;;;;;;;24.54;40.79;101366.44;4402904;32;20045;-76
2021/06/24 00:56:52;;;;;;;2.97;2.40;;;;;;;24.46;41.02;101361.72;4403173;32;20089;-77
2021/06/24 00:59:18;;;;;;;4.37;2.25;;;;;;;24.50;40.93;101365.13;4403388;32;20430;-75
2021/06/24 01:01:44;;;;;;;4.45;2.35;;;;;;;24.55;40.85;101368.03;4400761;32;20102;-76
2021/06/24 01:04:10;;;;;;;3.17;2.00;;;;;;;24.44;41.04;101367.19;4404526;32;20081;-75
2021/06/24 01:06:35;;;;;;;5.03;2.20;;;;;;;24.30;41.26;101369.00;4401067;32;20093;-78
2021/06/24 01:09:01;;;;;;;3.95;2.35;;;;;;;24.44;41.03;101364.31;4402384;32;20157;-77
2021/06/24 01:11:27;;;;;;;4.07;2.47;;;;;;;24.50;40.94;101370.88;4401562;32;20140;-77
2021/06/24 01:13:53;;;;;;;3.83;2.20;;;;;;;24.55;40.97;101370.09;4404266;32;20058;-77
2021/06/24 01:16:19;;;;;;;5.32;2.20;;;;;;;24.50;41.01;101362.25;4404266;32;20038;-76
2021/06/24 01:18:46;;;;;;;4.07;2.58;;;;;;;24.46;41.04;101374.03;4406753;32;20039;-76
2021/06/24 01:21:11;;;;;;;3.37;2.55;;;;;;;24.67;40.79;101368.84;4402822;32;20134;-77
2021/06/24 01:23:39;;;;;;;4.28;2.50;;;;;;;24.52;41.00;101360.44;4403734;32;20030;-76
2021/06/24 01:26:06;;;;;;;4.00;2.62;;;;;;;24.64;40.96;101356.28;4406207;32;20056;-77
2021/06/24 01:28:32;;;;;;;4.78;2.83;;;;;;;24.37;41.31;101357.00;4403674;32;20562;-78
2021/06/24 01:30:58;;;;;;;3.33;2.22;;;;;;;24.46;41.00;101353.09;4403716;32;20018;-75
2021/06/24 01:33:24;;;;;;;4.03;2.35;;;;;;;24.50;40.92;101353.59;4389289;32;20584;-75
2021/06/24 01:35:57;;;;;;;4.82;2.30;;;;;;;24.56;41.05;101352.31;4403513;32;20100;-77
2021/06/24 01:38:22;;;;;;;3.20;2.60;;;;;;;24.85;40.56;101351.06;4403667;32;20077;-75
2021/06/24 01:40:48;;;;;;;4.78;2.70;;;;;;;24.48;40.99;101344.72;4400497;32;20069;-76
2021/06/24 01:43:14;;;;;;;3.37;2.47;;;;;;;24.52;40.95;101348.13;4402301;32;20025;-75
2021/06/24 01:45:49;;;;;;;4.72;2.60;;;;;;;24.46;41.00;101342.37;4390865;32;20034;-76
2021/06/24 01:48:15;;;;;;;3.83;2.20;;;;;;;24.93;40.25;101347.12;4406062;32;20050;-77
2021/06/24 01:50:41;;;;;;;3.05;1.90;;;;;;;24.61;40.70;101345.00;4402500;32;20131;-75
2021/06/24 01:53:07;;;;;;;4.05;2.25;;;;;;;24.71;40.62;101335.63;4405220;32;20513;-77
2021/06/24 01:55:34;;;;;;;3.58;2.25;;;;;;;24.42;41.12;101341.81;4400911;32;20123;-78
2021/06/24 01:58:01;;;;;;;3.83;2.47;;;;;;;24.51;40.95;101338.69;4404243;32;20030;-78
2021/06/24 02:00:27;;;;;;;3.22;2.20;;;;;;;24.73;40.71;101333.00;4403009;32;20041;-79
2021/06/24 02:02:53;;;;;;;5.25;2.53;;;;;;;24.69;40.83;101331.69;4402749;32;20493;-77
2021/06/24 02:05:19;;;;;;;3.67;2.50;;;;;;;24.63;40.79;101327.97;4403627;32;20413;-75
2021/06/24 02:07:44;;;;;;;3.45;2.17;;;;;;;24.60;40.75;101326.94;4405805;32;20077;-75
2021/06/24 02:10:11;;;;;;;3.28;2.20;;;;;;;24.62;40.75;101321.47;4400777;32;20097;-77
2021/06/24 02:12:37;;;;;;;2.70;2.15;;;;;;;24.65;40.90;101326.19;4401700;32;20132;-79
2021/06/24 02:15:05;;;;;;;3.08;1.98;;;;;;;24.44;41.31;101324.84;4402715;32;20042;-77
2021/06/24 02:17:31;;;;;;;3.37;2.15;;;;;;;24.69;41.04;101320.16;4404698;32;20042;-77
2021/06/24 02:19:57;;;;;;;3.75;2.05;;;;;;;24.49;41.33;101311.75;4404351;32;20090;-74
2021/06/24 02:22:23;;;;;;;3.72;1.95;;;;;;;24.40;41.35;101321.44;4401287;32;20041;-77
2021/06/24 02:24:49;;;;;;;4.60;2.70;;;;;;;24.44;41.43;101312.53;4405837;32;20140;-77
2021/06/24 02:27:14;;;;;;;2.62;1.85;;;;;;;24.24;41.97;101309.91;4403354;32;20346;-75
2021/06/24 02:29:40;;;;;;;6.50;2.30;;;;;;;24.27;41.74;101315.37;4406535;32;20106;-75
2021/06/24 02:32:06;;;;;;;3.03;2.08;;;;;;;24.45;41.44;101311.25;4401714;32;20436;-78
2021/06/24 02:34:33;;;;;;;3.75;2.35;;;;;;;24.31;41.63;101318.00;4404524;32;20101;-76
2021/06/24 02:36:59;;;;;;;4.37;2.50;;;;;;;24.48;41.63;101307.31;4390779;32;20103;-74
2021/06/24 02:39:25;;;;;;;3.37;2.28;;;;;;;24.31;41.73;101309.38;4403763;32;20062;-78
2021/06/24 02:41:51;;;;;;;3.45;2.37;;;;;;;24.37;41.64;101310.97;4402723;32;20037;-75
2021/06/24 02:44:16;;;;;;;2.83;2.03;;;;;;;24.37;41.73;101310.19;4403355;32;20424;-79
2021/06/24 02:46:42;;;;;;;2.95;1.67;;;;;;;24.31;41.69;101318.00;4399942;32;20073;-78
2021/06/24 02:49:08;;;;;;;2.25;2.00;;;;;;;24.49;41.49;101312.56;4405725;32;20490;-77
2021/06/24 02:51:33;;;;;;;3.35;1.67;;;;;;;24.52;41.45;101305.75;4398746;32;20065;-77
2021/06/24 02:53:59;;;;;;;3.22;1.70;;;;;;;24.58;41.42;101311.50;4402727;32;20430;-76
2021/06/24 02:56:25;;;;;;;2.70;2.00;;;;;;;24.56;41.46;101306.28;4403191;32;20042;-78
2021/06/24 02:58:50;;;;;;;3.12;1.90;;;;;;;24.46;41.48;101316.47;4404085;32;20502;-75
2021/06/24 03:01:18;;;;;;;2.20;1.67;;;;;;;24.32;41.92;101313.81;4405071;32;20069;-78
2021/06/24 03:03:43;;;;;;;3.20;2.40;;;;;;;24.52;41.48;101311.50;4393849;32;20458;-78
2021/06/24 03:06:09;;;;;;;6.28;1.90;;;;;;;24.60;41.14;101315.44;4404981;32;20064;-79
2021/06/24 03:08:35;;;;;;;2.45;1.80;;;;;;;24.55;41.17;101319.09;4405494;32;20065;-75
2021/06/24 03:11:02;;;;;;;2.40;1.75;;;;;;;24.64;41.09;101306.53;4403166;32;20547;-76
2021/06/24 03:13:28;;;;;;;4.32;2.30;;;;;;;24.86;40.97;101318.88;4407362;32;20093;-77
2021/06/24 03:15:54;;;;;;;3.75;1.58;;;;;;;24.90;40.83;101312.84;4405864;32;20051;-78
2021/06/24 03:18:19;;;;;;;3.87;1.83;;;;;;;24.96;40.68;101311.53;4407554;32;20140;-77
2021/06/24 03:20:45;;;;;;;4.20;2.50;;;;;;;24.87;41.00;101311.00;4402516;32;20109;-77
2021/06/24 03:23:11;;;;;;;3.40;2.15;;;;;;;24.88;41.04;101312.59;4404533;32;20168;-76
2021/06/24 03:25:37;;;;;;;3.70;2.20;;;;;;;24.85;41.21;101308.66;4409606;32;20458;-78
2021/06/24 03:28:04;;;;;;;3.55;2.58;;;;;;;24.68;41.41;101309.97;4391540;32;20134;-78
2021/06/24 03:30:29;;;;;;;4.25;2.42;;;;;;;24.97;nan;101312.28;4406027;32;20730;-78
2021/06/24 03:32:55;;;;;;;4.12;2.65;;;;;;;25.02;41.12;101320.16;4407153;32;20105;-75
2021/06/24 03:35:21;;;;;;;4.18;2.60;;;;;;;25.05;41.13;101307.59;4409919;32;20083;-78
2021/06/24 03:37:47;;;;;;;4.60;2.67;;;;;;;25.16;41.06;101302.59;4403938;32;20015;-76
2021/06/24 03:40:18;;;;;;;4.12;2.55;;;;;;;25.25;40.92;101308.06;4407071;32;20492;-78
2021/06/24 03:42:45;;;;;;;4.75;3.37;;;;;;;25.40;40.73;101299.16;4407614;32;20105;-77
2021/06/24 03:45:11;;;;;;;6.78;2.90;;;;;;;25.64;40.45;101295.69;4403340;32;20027;-78
2021/06/24 03:47:37;;;;;;;6.15;3.30;;;;;;;25.59;40.35;101296.47;4404999;32;20053;-77
2021/06/24 03:50:04;;;;;;;4.50;3.20;;;;;;;25.66;40.23;101302.47;4405985;32;20088;-75
2021/06/24 03:52:30;;;;;;;4.40;2.87;;;;;;;25.90;40.02;101291.09;4405114;32;20442;-78
2021/06/24 03:54:56;;;;;;;4.70;3.08;;;;;;;25.84;40.03;101299.00;4405996;32;20482;-79
2021/06/24 03:57:22;;;;;;;4.93;3.30;;;;;;;25.85;40.06;101296.88;4407301;32;20171;-76
2021/06/24 03:59:47;;;;;;;5.22;3.58;;;;;;;25.49;40.74;101310.38;4403828;32;20102;-79
2021/06/24 04:02:13;;;;;;;8.88;3.37;;;;;;;25.60;40.53;101304.59;4402647;32;20596;-76
2021/06/24 04:04:40;;;;;;;5.25;3.15;;;;;;;25.53;40.68;101308.03;4405545;32;20030;-74
2021/06/24 04:07:06;;;;;;;7.07;4.22;;;;;;;25.25;41.28;101308.06;4408952;32;20443;-74
2021/06/24 04:09:32;;;;;;;5.75;3.10;;;;;;;25.34;41.09;101312.78;4407160;32;20088;-78
2021/06/24 04:11:58;;;;;;;5.65;2.83;;;;;;;25.49;40.79;101304.63;4403203;32;20470;-78
2021/06/24 04:14:23;;;;;;;5.03;2.80;;;;;;;25.61;40.72;101311.91;4407170;32;20077;-79
2021/06/24 04:16:49;;;;;;;5.18;3.17;;;;;;;25.60;40.64;101310.34;4402295;32;20100;-75
2021/06/24 04:19:16;;;;;;;5.90;2.83;;;;;;;25.79;40.20;101305.56;4406405;32;20081;-74
2021/06/24 04:21:43;;;;;;;4.43;2.65;;;;;;;25.91;40.11;101307.06;4405631;32;20052;-77
2021/06/24 04:24:10;;;;;;;4.22;2.85;;;;;;;25.95;39.91;101301.81;4392681;32;20468;-74
2021/06/24 04:26:36;;;;;;;4.47;2.50;;;;;;;26.06;39.87;101298.91;4403598;32;20103;-77
2021/06/24 04:29:02;;;;;;;4.37;2.37;;;;;;;26.03;39.59;101302.06;4402437;32;20466;-78
2021/06/24 04:31:27;;;;;;;3.30;2.35;;;;;;;26.25;39.13;101307.69;4402116;32;20358;-79
2021/06/24 04:33:53;;;;;;;3.60;2.60;;;;;;;26.51;38.89;101303.03;4405361;32;20100;-74
2021/06/24 04:36:19;;;;;;;4.10;2.40;;;;;;;26.59;38.74;101306.94;4402596;32;20132;-75
2021/06/24 04:38:44;;;;;;;4.22;2.50;;;;;;;26.68;38.38;101300.06;4405417;32;20069;-78
2021/06/24 04:41:11;;;;;;;3.50;2.10;;;;;;;26.73;38.38;101293.47;4403786;32;20035;-75
2021/06/24 04:43:37;;;;;;;4.78;2.55;;;;;;;26.78;38.26;101302.06;4404625;32;20091;-77
2021/06/24 04:46:03;;;;;;;3.75;2.22;;;;;;;27.05;37.88;101301.03;4404298;32;20096;-78
2021/06/24 04:48:28;;;;;;;3.30;2.33;;;;;;;27.21;37.67;101302.16;4407382;32;20038;-75
2021/06/24 04:50:54;;;;;;;3.10;2.00;;;;;;;27.11;37.58;101295.97;4392568;32;20054;-75
2021/06/24 04:53:20;;;;;;;4.60;2.35;;;;;;;27.25;37.42;101296.94;4407445;32;20072;-74
2021/06/24 04:55:46;;;;;;;2.58;1.77;;;;;;;27.39;37.16;101306.50;4406145;32;20096;-74
2021/06/24 04:58:12;;;;;;;3.50;1.87;;;;;;;27.41;36.99;101295.94;4404724;32;20500;-77
2021/06/24 05:00:38;;;;;;;3.03;1.50;;;;;;;27.44;37.05;101291.19;4402441;32;20050;-75
2021/06/24 05:03:05;;;;;;;2.28;1.50;;;;;;;27.59;36.56;101295.22;4403573;32;20437;-77
2021/06/24 05:05:31;;;;;;;2.78;1.87;;;;;;;27.76;36.62;101292.13;4402696;32;20110;-75
2021/06/24 05:07:57;;;;;;;2.67;2.00;;;;;;;27.79;36.55;101291.03;4403764;32;20034;-75
2021/06/24 05:10:23;;;;;;;2.33;1.55;;;;;;;27.84;36.19;101293.84;4401110;32;20066;-75
2021/06/24 05:12:49;;;;;;;4.97;1.90;;;;;;;27.87;36.12;101284.09;4404824;32;20060;-75
2021/06/24 05:15:15;;;;;;;6.00;2.08;;;;;;;27.98;36.37;101286.81;4405971;32;20039;-74
2021/06/24 05:17:41;;;;;;;4.80;1.92;;;;;;;28.02;36.16;101284.41;4406475;32;20038;-75
2021/06/24 05:20:08;;;;;;;4.65;1.92;;;;;;;28.04;36.14;101286.75;4400827;32;20656;-77
2021/06/24 05:22:35;;;;;;;1.40;0.90;;;;;;;28.08;36.36;101290.13;4404891;32;20050;-74
2021/06/24 05:25:01;;;;;;;1.33;0.90;;;;;;;28.09;36.34;101285.88;4404909;32;20045;-75
2021/06/24 05:27:26;;;;;;;1.83;1.17;;;;;;;27.55;37.27;101291.81;4406639;32;20065;-76
2021/06/24 05:29:52;;;;;;;1.35;1.00;;;;;;;27.79;36.97;101291.78;4402734;32;20090;-75
2021/06/24 05:32:18;;;;;;;2.53;0.73;;;;;;;27.88;36.33;101288.53;4406792;32;20506;-74
2021/06/24 05:34:44;;;;;;;0.98;0.85;;;;;;;27.86;36.78;101279.66;4404100;32;20431;-78
2021/06/24 05:37:09;;;;;;;2.28;1.08;;;;;;;27.83;36.62;101288.59;4400896;32;20030;-75
2021/06/24 05:39:35;;;;;;;1.12;0.90;;;;;;;27.83;36.71;101274.13;4406256;32;20077;-77
2021/06/24 05:42:01;;;;;;;1.20;0.90;;;;;;;27.89;36.88;101280.66;4406583;32;20034;-77
2021/06/24 05:44:28;;;;;;;2.17;1.52;;;;;;;28.23;36.31;101281.75;4402897;32;20038;-76
2021/06/24 05:46:54;;;;;;;1.08;0.82;;;;;;;28.33;36.15;101285.78;4404450;32;20038;-75
2021/06/24 05:49:20;;;;;;;0.95;0.73;;;;;;;28.58;35.58;101284.37;4392001;32;20599;-78
2021/06/24 05:51:46;;;;;;;0.98;0.80;;;;;;;28.61;35.42;101283.25;4405935;32;20070;-76
2021/06/24 05:54:14;;;;;;;2.37;1.33;;;;;;;28.86;35.09;101288.34;4405246;32;20050;-75
2021/06/24 05:56:41;;;;;;;1.23;0.90;;;;;;;29.00;34.90;101287.03;4400225;32;20066;-76
2021/06/24 05:59:07;;;;;;;1.40;1.05;;;;;;;29.30;34.52;101280.19;4400713;32;21137;-75
2021/06/24 06:01:33;;;;;;;1.23;0.80;;;;;;;29.31;34.50;101282.53;4397253;32;20236;-75
2021/06/24 06:03:59;;;;;;;0.90;0.70;;;;;;;29.43;34.18;101286.78;4406271;32;20050;-75
2021/06/24 06:06:24;;;;;;;1.52;0.90;;;;;;;29.49;33.82;101293.25;4407686;32;20115;-78
2021/06/24 06:08:50;;;;;;;0.60;0.60;;;;;;;29.72;33.63;101296.47;4401402;32;20881;-75
2021/06/24 06:11:18;;;;;;;1.62;0.90;;;;;;;29.71;33.68;101294.94;4401603;32;20503;-75
2021/06/24 06:13:44;;;;;;;1.20;0.60;;;;;;;29.59;33.64;101294.34;4403818;32;20053;-77
2021/06/24 06:16:10;;;;;;;0.93;0.80;;;;;;;29.75;33.69;101289.56;4404275;32;20037;-76
2021/06/24 06:18:36;;;;;;;1.10;0.93;;;;;;;29.44;34.05;101281.75;4403348;32;20093;-78
2021/06/24 06:21:02;;;;;;;2.45;0.88;;;;;;;29.47;34.17;101274.84;4402512;32;20441;-75
2021/06/24 06:23:28;;;;;;;1.70;1.15;;;;;;;29.74;33.67;101288.00;4402801;32;20088;-74
2021/06/24 06:25:55;;;;;;;1.33;0.90;;;;;;;29.83;33.51;101268.03;4405659;32;20099;-76
2021/06/24 06:28:23;;;;;;;1.00;0.77;;;;;;;29.65;33.88;101276.84;4387955;32;20390;-76
2021/06/24 06:30:50;;;;;;;3.83;1.12;;;;;;;29.93;33.56;101274.94;4398028;32;20082;-77
2021/06/24 06:33:18;;;;;;;2.45;1.12;;;;;;;29.96;33.34;101273.81;4404519;32;20462;-77
2021/06/24 06:35:44;;;;;;;1.37;1.00;;;;;;;30.05;33.43;101276.22;4403241;32;20426;-74
2021/06/24 06:38:11;;;;;;;1.10;0.70;;;;;;;30.09;33.37;101273.75;4394063;32;20433;-75
2021/06/24 06:40:36;;;;;;;0.68;0.60;;;;;;;30.34;32.95;101277.19;4385809;32;20050;-73
2021/06/24 06:43:02;;;;;;;1.15;0.73;;;;;;;30.60;32.57;101277.06;4408213;32;20209;-74
2021/06/24 06:45:30;;;;;;;0.70;0.65;;;;;;;30.44;32.76;101269.53;4399353;32;20034;-75
2021/06/24 06:47:56;;;;;;;0.93;0.60;;;;;;;30.53;32.50;101269.06;4397436;32;20105;-74
2021/06/24 06:50:23;;;;;;;1.00;0.70;;;;;;;30.17;33.05;101276.75;4397552;32;20499;-73
2021/06/24 06:52:49;;;;;;;1.12;0.70;;;;;;;30.50;32.57;101278.91;4400936;32;20034;-73
2021/06/24 06:55:15;;;;;;;0.75;0.60;;;;;;;30.63;32.46;101281.72;4398784;32;20135;-73
2021/06/24 06:57:40;;;;;;;2.10;0.82;;;;;;;30.68;32.04;101283.72;4401098;32;20038;-73
2021/06/24 07:00:09;;;;;;;0.73;0.60;;;;;;;30.52;32.56;101282.78;4398324;32;20046;-74
2021/06/24 07:02:35;;;;;;;1.58;0.73;;;;;;;31.01;32.07;101285.78;4394410;32;20050;-75
2021/06/24 07:05:02;;;;;;;0.60;0.50;;;;;;;30.86;32.05;101293.59;4393200;32;20163;-73
2021/06/24 07:07:28;;;;;;;0.98;0.70;;;;;;;30.88;32.21;101285.06;4391312;32;20042;-73
2021/06/24 07:09:53;;;;;;;3.05;0.68;;;;;;;31.22;31.44;101292.34;4403712;32;20111;-75
2021/06/24 07:12:20;;;;;;;0.80;0.47;;;;;;;31.41;31.05;101289.22;4395492;32;20070;-73
2021/06/24 07:14:47;;;;;;;0.88;0.80;;;;;;;31.58;30.96;101289.50;4395814;32;20211;-74
2021/06/24 07:17:13;;;;;;;0.70;0.60;;;;;;;31.56;31.07;101295.09;4393017;32;20089;-77
2021/06/24 07:19:39;;;;;;;0.90;0.60;;;;;;;31.72;30.86;101288.03;4391772;32;20074;-74
2021/06/24 07:22:05;;;;;;;0.55;0.30;;;;;;;31.95;30.48;101281.00;4395413;32;20159;-74
2021/06/24 07:24:32;;;;;;;3.12;1.37;;;;;;;32.11;30.34;101276.78;4394768;32;20073;-73
2021/06/24 07:26:58;;;;;;;2.15;0.55;;;;;;;32.47;29.82;101288.38;4392835;32;20079;-75
2021/06/24 07:29:24;;;;;;;0.35;0.30;;;;;;;32.87;29.32;101291.56;4390079;32;20082;-74
2021/06/24 07:31:50;;;;;;;0.25;0.25;;;;;;;32.59;29.39;101293.25;4389112;32;20129;-79
2021/06/24 07:34:16;;;;;;;0.75;0.40;;;;;;;32.45;30.07;101296.91;4392965;32;20126;-75
2021/06/24 07:36:42;;;;;;;0.77;0.40;;;;;;;32.42;30.31;101287.19;4393662;32;20411;-76
2021/06/24 07:39:08;;;;;;;0.65;0.50;;;;;;;32.43;30.15;101293.81;4395034;32;20077;-80
2021/06/24 07:41:34;;;;;;;1.60;0.82;;;;;;;32.31;30.52;101284.59;4394433;32;20092;-76
2021/06/24 07:44:00;;;;;;;6.57;0.70;;;;;;;31.64;31.38;101273.44;4392638;32;20446;-78
2021/06/24 07:46:27;;;;;;;1.90;0.45;;;;;;;32.24;30.76;101279.53;4390915;32;20081;-74
2021/06/24 07:48:52;;;;;;;3.83;1.00;;;;;;;31.96;31.23;101276.72;4390095;32;21027;-73
2021/06/24 07:51:18;;;;;;;0.90;0.65;;;;;;;31.54;31.98;101272.41;4389943;32;20106;-76
2021/06/24 07:53:44;;;;;;;0.77;0.40;;;;;;;31.17;33.05;101272.91;4393636;32;20115;-75
2021/06/24 07:56:12;;;;;;;10.43;1.15;;;;;;;30.08;35.55;101272.22;4389353;32;20054;-76
2021/06/24 07:58:39;;;;;;;7.68;1.10;;;;;;;30.06;36.04;101274.13;4376892;32;20077;-75
2021/06/24 08:01:05;;;;;;;0.50;0.40;;;;;;;29.40;37.74;101270.50;4392706;32;20143;-73
2021/06/24 08:03:32;;;;;;;2.00;0.73;;;;;;;28.88;39.47;101279.09;4393377;32;20197;-76
2021/06/24 08:05:58;;;;;;;1.35;0.50;;;;;;;28.15;39.65;101269.22;4377898;32;20501;-75
2021/06/24 08:08:24;;;;;;;18.10;2.10;;;;;;;28.17;40.10;101276.03;4393386;32;20098;-73
2021/06/24 08:10:50;;;;;;;1.65;0.43;;;;;;;27.81;41.05;101273.87;4392248;32;20145;-74
2021/06/24 08:13:16;;;;;;;1.80;0.50;;;;;;;27.21;41.82;101274.06;4391997;32;20072;-72
2021/06/24 08:15:42;;;;;;;0.47;0.30;;;;;;;27.36;43.14;101270.00;4392784;32;20334;-72
2021/06/24 08:18:08;;;;;;;0.37;0.30;;;;;;;27.29;42.21;101268.50;4394800;32;20046;-74
2021/06/24 08:20:34;;;;;;;3.35;0.60;;;;;;;27.08;42.60;101262.38;4391775;32;20038;-73
2021/06/24 08:22:59;;;;;;;1.10;0.43;;;;;;;27.18;43.15;101254.13;4392577;32;20041;-74
2021/06/24 08:25:26;;;;;;;1.52;0.40;;;;;;;27.79;42.48;101265.75;4392530;32;20081;-74
2021/06/24 08:27:52;;;;;;;2.25;0.62;;;;;;;28.08;41.62;101261.97;4391687;32;20081;-76
2021/06/24 08:30:19;;;;;;;1.25;0.52;;;;;;;28.21;40.91;101259.12;4389681;32;20782;-74
2021/06/24 08:32:45;;;;;;;1.98;0.30;;;;;;;28.38;40.09;101258.88;4392995;32;20116;-75
2021/06/24 08:35:12;;;;;;;0.93;0.40;;;;;;;28.31;39.60;101251.59;4387381;32;20262;-74
2021/06/24 08:37:38;;;;;;;1.05;0.30;;;;;;;28.86;39.78;101261.47;4390449;32;20070;-73
2021/06/24 08:40:07;;;;;;;0.43;0.30;;;;;;;28.86;38.98;101253.59;4391321;32;20332;-73
2021/06/24 08:42:33;;;;;;;0.32;0.20;;;;;;;29.37;37.91;101259.22;4392280;32;20078;-74
2021/06/24 08:45:01;;;;;;;0.90;0.50;;;;;;;29.87;38.02;101261.88;4392422;32;20038;-73
2021/06/24 08:47:29;;;;;;;3.25;0.50;;;;;;;29.89;37.79;101259.19;4390034;32;20474;-73
2021/06/24 08:49:57;;;;;;;0.73;0.43;;;;;;;30.58;36.48;101260.19;4392504;32;20096;-74
2021/06/24 08:52:23;;;;;;;1.02;0.30;;;;;;;30.79;36.63;101263.13;4390282;32;20096;-73
2021/06/24 08:54:48;;;;;;;0.10;0.10;;;;;;;31.03;34.98;101248.19;4391713;32;20077;-73
2021/06/24 08:57:16;;;;;;;1.67;0.40;;;;;;;31.37;34.25;101253.87;4388092;32;20054;-73
2021/06/24 08:59:43;;;;;;;1.48;0.55;;;;;;;31.76;34.43;101253.50;4391664;32;20084;-73
2021/06/24 09:02:12;;;;;;;3.03;0.40;;;;;;;31.85;33.94;101244.28;4389852;32;20096;-73
2021/06/24 09:04:43;;;;;;;0.73;0.30;;;;;;;32.34;33.12;101248.50;4380474;32;20408;-74
2021/06/24 09:07:12;;;;;;;2.33;0.40;;;;;;;32.34;32.14;101239.78;4389572;32;21749;-74
2021/06/24 09:09:48;;;;;;;2.37;0.37;;;;;;;32.56;32.93;101241.97;4388464;32;20047;-74
2021/06/24 09:12:14;;;;;;;1.15;0.50;;;;;;;32.65;31.93;101243.50;4385370;32;20065;-75
2021/06/24 09:14:42;;;;;;;2.10;0.30;;;;;;;32.47;32.46;101242.53;4388377;32;20881;-74
2021/06/24 09:17:09;;;;;;;3.37;0.40;;;;;;;32.73;31.75;101240.59;4391570;32;20101;-73
2021/06/24 09:19:39;;;;;;;0.30;0.30;;;;;;;32.50;32.21;101250.13;4391855;32;20035;-74
2021/06/24 09:22:10;;;;;;;0.50;0.40;;;;;;;32.61;31.77;101243.13;4379467;32;20132;-75
2021/06/24 09:24:48;;;;;;;0.55;0.40;;;;;;;33.04;31.09;101245.09;4390094;32;20574;-75
2021/06/24 09:30:10;;;;;;;1.05;0.30;;;;;;;33.15;31.10;101247.59;3970462;32;15157332;-72
2021/06/24 09:32:40;;;;;;;0.30;0.25;;;;;;;33.17;30.75;101247.78;4435254;32;20576;-73
2021/06/24 09:35:07;;;;;;;0.50;0.40;;;;;;;33.24;31.22;101244.88;4433591;32;20072;-73
2021/06/24 09:43:32;;;;;;;0.47;0.40;;;;;;;33.47;31.04;101230.25;3977156;32;15025292;-74
2021/06/24 09:46:06;;;;;;;1.92;0.30;;;;;;;33.47;31.04;101230.25;4430357;32;20068;-74
2021/06/24 09:48:34;;;;;;;3.55;0.47;;;;;;;33.63;30.79;101223.00;4434048;32;20053;-74
2021/06/24 09:56:52;;;;;;;0.80;0.52;;;;;;;34.72;29.19;101210.31;3983488;32;15023410;-76
2021/06/24 09:59:18;;;;;;;0.40;0.32;;;;;;;34.72;29.19;101210.31;4430802;32;20124;-73
2021/06/24 10:01:47;;;;;;;0.40;0.30;;;;;;;33.78;30.43;101206.19;4432327;32;20100;-74
2021/06/24 10:06:59;;;;;;;0.30;0.30;;;;;;;34.49;29.71;101204.62;3990594;31;15018901;-73
2021/06/24 10:09:26;;;;;;;3.50;0.50;;;;;;;34.49;29.71;101204.62;4436718;32;20431;-73
2021/06/24 10:11:53;;;;;;;1.60;0.50;;;;;;;33.52;31.09;101200.84;4438163;32;20183;-73
2021/06/24 10:14:19;;;;;;;0.93;0.60;;;;;;;33.53;31.02;101208.22;4438051;32;20117;-71
2021/06/24 10:16:51;;;;;;;0.95;0.50;;;;;;;33.81;30.73;101213.75;4437471;32;20041;-72
2021/06/24 10:19:23;;;;;;;1.50;0.43;;;;;;;33.61;30.42;101216.97;4438869;32;20085;-73
2021/06/24 10:21:52;;;;;;;0.47;0.40;;;;;;;34.00;30.17;101216.22;4439931;32;20114;-72
2021/06/24 10:24:25;;;;;;;3.10;0.40;;;;;;;34.20;30.07;101212.19;4438095;32;20099;-74
2021/06/24 10:26:53;;;;;;;2.12;0.30;;;;;;;34.32;29.72;101207.44;4426335;32;20080;-74
2021/06/24 10:29:22;;;;;;;6.65;0.77;;;;;;;33.10;31.41;101193.94;4437213;32;20100;-74
2021/06/24 10:34:45;;;;;;;3.30;0.70;;;;;;;34.60;29.81;101189.53;3950020;32;15727605;-72
2021/06/24 10:37:15;;;;;;;1.10;0.90;;;;;;;34.71;29.24;101191.97;4415644;32;20072;-73
2021/06/24 10:39:43;;;;;;;1.75;0.90;;;;;;;34.83;29.27;101190.13;4427393;32;20097;-73
2021/06/24 10:42:14;;;;;;;1.30;1.10;;;;;;;34.37;29.68;101191.88;4423068;32;20508;-73
2021/06/24 11:06:19;;;;;;;3.35;1.52;;;;;;;34.80;29.72;101161.28;3967282;32;15027509;-74
2021/06/24 11:08:45;;;;;;;2.45;1.23;;;;;;;34.80;29.72;101161.28;4412812;32;20067;-75
2021/06/24 11:13:48;;;;;;;1.20;1.00;;;;;;;36.03;28.46;101149.88;3991363;31;15017451;-75
2021/06/24 11:26:48;;;;;;;2.65;1.33;;;;;;;34.80;30.24;101155.44;3970199;32;15024284;-74
2021/06/24 11:29:50;;;;;;;2.10;1.00;;;;;;;34.80;30.24;101155.44;4415491;32;20093;-74
2021/06/24 11:32:10;;;;;;;1.85;1.10;;;;;;;34.71;30.30;101153.97;4417090;32;20069;-74
2021/06/24 11:37:16;;;;;;;3.53;1.40;;;;;;;34.64;30.81;101151.13;3971843;32;15023643;-73
2021/06/24 11:42:29;;;;;;;2.10;1.30;;;;;;;33.25;32.64;101141.38;3978686;32;15023283;-73
2021/06/24 11:44:56;;;;;;;3.30;1.10;;;;;;;33.25;32.64;101141.38;4432190;32;20184;-73
2021/06/24 12:00:48;;;;;;;1.85;1.52;;;;;;;33.07;32.83;101136.78;4429435;32;20489;-75
2021/06/24 12:03:18;;;;;;;3.15;2.03;;;;;;;33.04;32.77;101145.94;4421545;32;20143;-74
2021/06/24 12:06:00;;;;;;;3.55;2.47;;;;;;;32.79;33.42;101142.81;4421761;32;20120;-78
2021/06/24 12:08:27;;;;;;;4.47;2.30;;;;;;;33.58;31.78;101134.28;4421331;32;20474;-76
2021/06/24 12:11:11;;;;;;;3.30;2.22;;;;;;;33.62;31.81;101136.81;4426049;32;20154;-77
2021/06/24 12:13:39;;;;;;;4.18;2.65;;;;;;;34.18;30.70;101131.00;4422153;32;21171;-74
2021/06/24 12:16:05;;;;;;;3.00;1.87;;;;;;;33.78;31.53;101118.56;4422422;32;20101;-73
2021/06/24 12:18:35;;;;;;;5.30;2.08;;;;;;;33.37;32.07;101115.53;4416317;32;20090;-74
2021/06/24 12:21:04;;;;;;;4.72;2.58;;;;;;;33.90;31.53;101116.03;4418042;32;20074;-75
2021/06/24 12:23:30;;;;;;;4.07;2.37;;;;;;;33.94;31.37;101123.00;4418523;32;20045;-74
2021/06/24 12:25:59;;;;;;;4.07;2.33;;;;;;;33.38;31.97;101128.72;4418548;32;20550;-72
2021/06/24 12:28:25;;;;;;;3.12;2.28;;;;;;;32.75;33.02;101121.25;4420338;32;20448;-73
2021/06/24 12:30:52;;;;;;;4.30;2.60;;;;;;;32.53;33.19;101125.78;4422680;32;20030;-72
2021/06/24 12:33:18;;;;;;;3.42;2.30;;;;;;;32.90;32.57;101118.34;4414473;32;20097;-72
2021/06/24 12:35:48;;;;;;;4.25;2.62;;;;;;;32.78;32.90;101112.13;4418943;32;20125;-71